• Join FlightAware (Why Join?)
  • Login
  • US Flag 
10:09AM EDT


 

Airport Tracker/Info


-or-


 

Live Flight TrackerFlight Track Log ✈ IBE3339 ✈ 08-May-2013 ✈ DGAA / ACC - LEMD / MAD

Flight Track Log - Related Links

Times and Time Zones

All times are in EDT time to prevent confusion due to time zone crossing. See the IBE3339 flight status page for this flight to view local times or setup timezone preferences in your user account.

Time Position Orientation Groundspeed Altitude Reporting Facility
EDT Latitude Longitude Course Direction KTS MPH feet Rate Location/Type
04:50AM 12.6955 -0.7383 355° North  Level Estimated
04:51AM 12.8046 -0.7473 355° North  Level Estimated
04:52AM 12.9137 -0.7563 355° North  Level Estimated
04:53AM 13.0227 -0.7653 355° North  Level Estimated
04:54AM 13.1318 -0.7743 355° North  Level Estimated
04:55AM 13.2409 -0.7834 355° North  Level Estimated
04:56AM 13.3499 -0.7924 355° North  Level Estimated
04:57AM 13.4590 -0.8015 355° North  Level Estimated
04:58AM 13.5681 -0.8105 355° North  Level Estimated
04:59AM 13.6772 -0.8196 355° North  Level Estimated
05:00AM 13.7862 -0.8286 355° North  Level Estimated
05:01AM 13.8953 -0.8377 355° North  Level Estimated
05:02AM 14.0044 -0.8468 355° North  Level Estimated
05:03AM 14.1134 -0.8559 355° North  Level Estimated
05:04AM 14.2225 -0.8650 355° North  Level Estimated
05:05AM 14.3316 -0.8741 355° North  Level Estimated
05:06AM 14.4406 -0.8832 355° North  Level Estimated
05:07AM 14.5497 -0.8924 355° North  Level Estimated
05:08AM 14.6588 -0.9015 355° North  Level Estimated
05:09AM 14.7679 -0.9107 355° North  Level Estimated
05:10AM 14.8769 -0.9198 355° North  Level Estimated
05:11AM 14.9860 -0.9290 355° North  Level Estimated
05:12AM 15.0951 -0.9382 355° North  Level Estimated
05:13AM 15.2041 -0.9474 355° North  Level Estimated
05:14AM 15.3132 -0.9566 355° North  Level Estimated
05:15AM 15.4223 -0.9658 355° North  Level Estimated
05:16AM 15.5314 -0.9750 355° North  Level Estimated
05:17AM 15.6404 -0.9842 355° North  Level Estimated
05:18AM 15.7495 -0.9934 355° North  Level Estimated
05:19AM 15.8585 -1.0027 355° North  Level Estimated
05:20AM 15.9676 -1.0119 355° North  Level Estimated
05:21AM 16.0767 -1.0212 355° North  Level Estimated
05:22AM 16.1857 -1.0304 355° North  Level Estimated
05:23AM 16.2948 -1.0397 355° North  Level Estimated
05:24AM 16.4038 -1.0490 355° North  Level Estimated
05:25AM 16.5129 -1.0583 355° North  Level Estimated
05:26AM 16.6220 -1.0676 355° North  Level Estimated
05:27AM 16.7310 -1.0770 355° North  Level Estimated
05:28AM 16.8401 -1.0863 355° North  Level Estimated
05:29AM 16.9491 -1.0957 355° North  Level Estimated
05:30AM 17.0582 -1.1050 355° North  Level Estimated
05:31AM 17.1673 -1.1144 355° North  Level Estimated
05:32AM 17.2763 -1.1238 355° North  Level Estimated
05:33AM 17.3854 -1.1332 355° North  Level Estimated
05:34AM 17.4944 -1.1426 355° North  Level Estimated
05:35AM 17.6035 -1.1520 355° North  Level Estimated
05:36AM 17.7126 -1.1614 355° North  Level Estimated
05:37AM 17.8216 -1.1709 355° North  Level Estimated
05:38AM 17.9307 -1.1803 355° North  Level Estimated
05:39AM 18.0397 -1.1898 355° North  Level Estimated
05:40AM 18.1488 -1.1992 355° North  Level Estimated
05:41AM 18.2579 -1.2087 355° North  Level Estimated
05:42AM 18.3669 -1.2182 355° North  Level Estimated
05:43AM 18.4760 -1.2277 355° North  Level Estimated
05:44AM 18.5850 -1.2372 355° North  Level Estimated
05:45AM 18.6941 -1.2468 355° North  Level Estimated
05:46AM 18.8031 -1.2563 355° North  Level Estimated
05:47AM 18.9122 -1.2659 355° North  Level Estimated
05:48AM 19.0212 -1.2754 355° North  Level Estimated
05:49AM 19.1303 -1.2850 355° North  Level Estimated
05:50AM 19.2393 -1.2946 355° North  Level Estimated
05:51AM 19.3484 -1.3042 355° North  Level Estimated
05:52AM 19.4574 -1.3138 355° North  Level Estimated
05:53AM 19.5665 -1.3235 355° North  Level Estimated
05:54AM 19.6755 -1.3331 355° North  Level Estimated
05:55AM 19.7846 -1.3428 355° North  Level Estimated
05:56AM 19.8936 -1.3525 355° North  Level Estimated
05:57AM 20.0027 -1.3621 355° North  Level Estimated
05:58AM 20.1117 -1.3718 355° North  Level Estimated
05:59AM 20.2208 -1.3815 355° North  Level Estimated
06:00AM 20.3298 -1.3913 355° North  Level Estimated
06:01AM 20.4389 -1.4010 355° North  Level Estimated
06:02AM 20.5479 -1.4108 355° North  Level Estimated
06:03AM 20.6569 -1.4205 355° North  Level Estimated
06:04AM 20.7660 -1.4303 355° North  Level Estimated
06:05AM 20.8750 -1.4401 355° North  Level Estimated
06:06AM 20.9841 -1.4499 355° North  Level Estimated
06:07AM 21.0931 -1.4598 355° North  Level Estimated
06:08AM 21.2021 -1.4696 355° North  Level Estimated
06:09AM 21.3112 -1.4794 355° North  Level Estimated
06:10AM 21.4202 -1.4893 355° North  Level Estimated
06:11AM 21.5292 -1.4992 355° North  Level Estimated
06:12AM 21.6383 -1.5091 355° North  Level Estimated
06:13AM 21.7473 -1.5190 355° North  Level Estimated
06:14AM 21.8564 -1.5289 355° North  Level Estimated
06:15AM 21.9654 -1.5389 355° North  Level Estimated
06:16AM 22.0744 -1.5488 355° North  Level Estimated
06:17AM 22.1835 -1.5588 355° North  Level Estimated
06:18AM 22.2925 -1.5688 355° North  Level Estimated
06:19AM 22.4016 -1.5788 355° North  Level Estimated
06:20AM 22.5106 -1.5888 355° North  Level Estimated
06:21AM 22.6196 -1.5989 355° North  Level Estimated
06:22AM 22.7286 -1.6089 355° North  Level Estimated
06:23AM 22.8377 -1.6190 355° North  Level Estimated
06:24AM 22.9467 -1.6291 355° North  Level Estimated
06:25AM 23.0557 -1.6392 355° North  Level Estimated
06:26AM 23.1648 -1.6493 355° North  Level Estimated
06:27AM 23.2738 -1.6594 355° North  Level Estimated
06:28AM 23.3828 -1.6696 355° North  Level Estimated
06:29AM 23.4919 -1.6797 355° North  Level Estimated
06:30AM 23.6009 -1.6899 355° North  Level Estimated
06:31AM 23.7099 -1.7001 355° North  Level Estimated
06:32AM 23.8190 -1.7103 355° North  Level Estimated
06:33AM 23.9280 -1.7206 355° North  Level Estimated
06:34AM 24.0370 -1.7308 355° North  Level Estimated
06:35AM 24.1460 -1.7411 355° North  Level Estimated
06:36AM 24.2550 -1.7514 355° North  Level Estimated
06:37AM 24.3641 -1.7617 355° North  Level Estimated
06:38AM 24.4731 -1.7720 355° North  Level Estimated
06:39AM 24.5821 -1.7823 355° North  Level Estimated
06:40AM 24.6911 -1.7927 355° North  Level Estimated
06:41AM 24.8001 -1.8031 355° North  Level Estimated
06:42AM 24.9092 -1.8135 355° North  Level Estimated
06:43AM 25.0182 -1.8239 355° North  Level Estimated
06:44AM 25.1272 -1.8343 355° North  Level Estimated
06:45AM 25.2362 -1.8448 355° North  Level Estimated
06:46AM 25.3452 -1.8553 355° North  Level Estimated
06:47AM 25.4543 -1.8657 355° North  Level Estimated
06:48AM 25.5633 -1.8763 355° North  Level Estimated
06:49AM 25.6723 -1.8868 355° North  Level Estimated
06:50AM 25.7813 -1.8973 355° North  Level Estimated
06:51AM 25.8903 -1.9079 355° North  Level Estimated
06:52AM 25.9993 -1.9185 355° North  Level Estimated
06:53AM 26.1083 -1.9291 355° North  Level Estimated
06:54AM 26.2173 -1.9397 355° North  Level Estimated
06:55AM 26.3263 -1.9503 355° North  Level Estimated
06:56AM 26.4354 -1.9610 355° North  Level Estimated
06:57AM 26.5444 -1.9717 355° North  Level Estimated
06:58AM 26.6534 -1.9824 355° North  Level Estimated
06:59AM 26.7624 -1.9931 355° North  Level Estimated
07:00AM 26.8714 -2.0039 355° North  Level Estimated
07:01AM 26.9804 -2.0146 355° North  Level Estimated
07:02AM 27.0894 -2.0254 355° North  Level Estimated
07:03AM 27.1984 -2.0362 355° North  Level Estimated
07:04AM 27.3074 -2.0471 355° North  Level Estimated
07:05AM 27.4164 -2.0579 355° North  Level Estimated
07:06AM 27.5254 -2.0688 355° North  Level Estimated
07:07AM 27.6344 -2.0797 355° North  Level Estimated
07:08AM 27.7434 -2.0906 355° North  Level Estimated
07:09AM 27.8524 -2.1015 355° North  Level Estimated
07:10AM 27.9614 -2.1125 355° North  Level Estimated
07:11AM 28.0704 -2.1235 355° North  Level Estimated
07:12AM 28.1794 -2.1345 355° North  Level Estimated
07:13AM 28.2884 -2.1455 355° North  Level Estimated
07:14AM 28.3974 -2.1565 355° North  Level Estimated
07:15AM 28.5064 -2.1676 355° North  Level Estimated
07:16AM 28.6154 -2.1787 355° North  Level Estimated
07:17AM 28.7243 -2.1898 355° North  Level Estimated
07:18AM 28.8333 -2.2010 355° North  Level Estimated
07:19AM 28.9423 -2.2121 355° North  Level Estimated
07:20AM 29.0513 -2.2233 355° North  Level Estimated
07:21AM 29.1603 -2.2345 355° North  Level Estimated
07:22AM 29.2693 -2.2458 355° North  Level Estimated
07:23AM 29.3783 -2.2570 355° North  Level Estimated
07:24AM 29.4873 -2.2683 355° North  Level Estimated
07:25AM 29.5962 -2.2796 355° North  Level Estimated
07:26AM 29.7052 -2.2910 355° North  Level Estimated
07:27AM 29.8142 -2.3023 355° North  Level Estimated
07:28AM 29.9232 -2.3137 355° North  Level Estimated
07:29AM 30.0322 -2.3251 355° North  Level Estimated
07:30AM 30.1411 -2.3365 355° North  Level Estimated
07:31AM 30.2501 -2.3480 355° North  Level Estimated
07:32AM 30.3591 -2.3595 355° North  Level Estimated
07:33AM 30.4681 -2.3710 355° North  Level Estimated
07:34AM 30.5770 -2.3825 355° North  Level Estimated
07:35AM 30.6860 -2.3941 355° North  Level Estimated
07:36AM 30.7950 -2.4057 355° North  Level Estimated
07:37AM 30.9040 -2.4173 355° North  Level Estimated
07:38AM 31.0129 -2.4289 355° North  Level Estimated
07:39AM 31.1219 -2.4406 355° North  Level Estimated
07:40AM 31.2309 -2.4523 355° North  Level Estimated
07:41AM 31.3398 -2.4640 355° North  Level Estimated
07:42AM 31.4488 -2.4757 355° North  Level Estimated
07:43AM 31.5578 -2.4875 355° North  Level Estimated
07:44AM 31.6667 -2.4993 355° North  Level Estimated
07:45AM 31.7757 -2.5111 355° North  Level Estimated
07:46AM 31.8847 -2.5230 355° North  Level Estimated
07:47AM 31.9936 -2.5349 355° North  Level Estimated
07:48AM 32.1026 -2.5468 355° North  Level Estimated
07:48AM 35.2400 0.5560 355° North 422 486 36,000  Level FlightAware
07:48AM 35.3220 0.5270 344° North 422 486 36,000  Level FlightAware
07:49AM 35.4100 0.4960 344° North 422 486 36,000  Level FlightAware
07:50AM 35.5050 0.4630 344° North 431 496 36,000  Level FlightAware
07:51AM 35.5840 0.4350 344° North 431 496 36,000  Level FlightAware
07:52AM 35.6840 0.4000 344° North 431 496 36,000  Level FlightAware
07:52AM 35.7750 0.3680 344° North 36,000  Level FlightAware
07:55AM 35.9805 0.2089 328° Northwest  Level Estimated
07:55AM 36.1040 0.2520 328° Northwest 423 487 36,000  Level FlightAware
07:56AM 36.1700 0.2270 343° North 423 487 36,000  Level FlightAware
07:57AM 36.2580 0.1970 345° North 423 487 36,000  Level FlightAware
07:57AM 36.3360 0.1690 344° North 422 486 36,000  Level FlightAware
07:58AM 36.4200 0.1390 344° North 422 486 36,000  Level FlightAware
07:59AM 36.5050 0.1080 344° North 422 486 36,000  Level FlightAware
07:59AM 36.5790 0.0810 344° North 423 487 36,000  Level FlightAware
08:00AM 36.6650 0.0500 344° North 432 497 36,000  Level FlightAware
08:01AM 36.7220 0.0300 344° North 433 498 36,000  Level FlightAware
08:01AM 36.8110 -0.0020 344° North 434 499 36,000  Level FlightAware
08:02AM 36.9120 -0.0220 351° North 434 499 36,000  Level FlightAware
08:03AM 36.9930 -0.0230 359° North 438 504 36,000  Level FlightAware
08:04AM 37.0980 -0.0230 360° North 437 503 36,000  Level FlightAware
08:04AM 37.1900 -0.0220 360° North 438 504 36,000  Level FlightAware
08:05AM 37.2720 -0.0220 360° North 438 504 36,000  Level FlightAware
08:06AM 37.3650 -0.0210 360° North 437 503 36,000  Level FlightAware
08:07AM 37.4550 -0.0210 360° North 438 504 36,000  Level FlightAware
08:07AM 37.5420 -0.0200 North 449 517 36,000  Level FlightAware
08:08AM 37.6260 -0.0200 360° North 450 518 36,000  Level FlightAware
08:09AM 37.7180 -0.0190 360° North 450 518 36,000  Level FlightAware
08:09AM 37.8030 -0.0180 North 449 517 36,000  Level FlightAware
08:10AM 37.8860 -0.0180 360° North 448 516 36,000  Level FlightAware
08:11AM 37.9660 -0.0170 North 448 516 36,000  Level FlightAware
08:11AM 38.0510 -0.0170 360° North 447 514 36,000  Level FlightAware
08:12AM 38.1330 -0.0160 North 438 504 36,000  Level FlightAware
08:13AM 38.2330 -0.0160 360° North 437 503 36,000  Level FlightAware
08:13AM 38.3150 -0.0150 North 437 503 36,000  Level FlightAware
08:14AM 38.3980 -0.0150 360° North 438 504 36,000  Level FlightAware
08:15AM 38.4820 -0.0140 North 448 516 36,000  Level FlightAware
08:16AM 38.6060 -0.0130 360° North 451 519 36,000  Level FlightAware
08:17AM 38.7020 -0.0130 360° North 451 519 36,000  Level FlightAware
08:17AM 38.7870 -0.0120 North 452 520 36,000 60 Level FlightAware
08:18AM 38.8680 -0.0120 360° North 450 518 36,100  Climbing FlightAware
08:19AM 38.9510 -0.0110 North 448 516 36,000 -120 Descending FlightAware
08:19AM 39.0370 -0.0110 360° North 447 514 36,000  Level FlightAware
08:20AM 39.1430 -0.0140 359° North 441 507 36,000  Level FlightAware
08:21AM 39.2180 -0.0370 347° North 432 497 36,000  Level FlightAware
08:21AM 39.2970 -0.0880 333° Northwest 423 487 36,000  Level FlightAware
08:22AM 39.3560 -0.1510 320° Northwest 418 481 36,000  Level FlightAware
08:23AM 39.4110 -0.2430 308° West 412 474 36,000  Level FlightAware
08:24AM 39.4430 -0.3330 295° West 408 470 36,000  Level FlightAware
08:24AM 39.4680 -0.4240 290° West 408 470 36,000  Level FlightAware
08:25AM 39.5020 -0.5210 294° West 409 471 36,000  Level FlightAware
08:26AM 39.5400 -0.6060 300° West 408 470 36,000 -480 Level FlightAware
08:26AM 39.5840 -0.7050 300° West 412 474 35,400 -900 Descending FlightAware
08:27AM 39.6200 -0.7880 299° West 417 480 34,800 -1,020 Descending FlightAware
08:28AM 39.6600 -0.8790 300° West 419 482 34,100 -1,020 Descending FlightAware
08:28AM 39.7010 -0.9730 300° West 421 484 33,400 -1,020 Descending FlightAware
08:29AM 39.7550 -1.0980 299° West 427 491 32,400 -1,020 Descending FlightAware
08:30AM 39.7950 -1.1880 300° West 432 497 31,800 -960 Descending FlightAware
08:31AM 39.8370 -1.2860 299° West 437 503 31,100 -1,020 Descending FlightAware
08:31AM 39.8780 -1.3810 299° West 439 505 30,400 -1,020 Descending FlightAware
08:32AM 39.9150 -1.4680 299° West 442 509 29,800 -1,020 Descending FlightAware
08:33AM 39.9610 -1.5740 300° West 441 507 29,000 -1,020 Descending FlightAware
08:34AM 39.9980 -1.6600 299° West 439 505 28,400 -1,200 Descending FlightAware
08:34AM 40.0470 -1.7770 299° West 442 509 27,300 -2,400 Descending FlightAware
08:35AM 40.0900 -1.8770 299° West 436 502 24,800 -3,540 Descending FlightAware
08:36AM 40.1180 -1.9440 299° West 430 495 22,900 -3,060 Descending FlightAware
08:36AM 40.1720 -2.0710 299° West 427 491 20,500 -1,980 Descending FlightAware
08:37AM 40.2080 -2.1570 299° West 400 460 19,800 -1,080 Descending FlightAware
08:38AM 40.2430 -2.2390 299° West 357 411 19,100 -1,020 Descending FlightAware
08:39AM 40.2770 -2.3190 299° West 319 367 18,400 -900 Descending FlightAware
08:39AM 40.3040 -2.3840 299° West 290 334 17,900 -720 Descending FlightAware
08:40AM 40.3310 -2.4480 299° West 263 303 17,400 -780 Descending FlightAware
08:41AM 40.3540 -2.5030 299° West 254 292 16,800 -1,020 Descending FlightAware
08:41AM 40.3820 -2.5530 306° West 260 299 16,100 -1,020 Descending FlightAware
08:42AM 40.4280 -2.5900 329° Northwest 259 298 15,400 -1,020 Descending FlightAware
08:43AM 40.4690 -2.6210 330° Northwest 251 289 14,700 -1,020 Descending FlightAware
08:43AM 40.5060 -2.6500 329° Northwest 247 284 14,100 -660 Descending FlightAware
08:44AM 40.5510 -2.6860 329° Northwest 252 290 13,800 -480 Descending FlightAware
08:45AM 40.5920 -2.7180 329° Northwest 252 290 13,500 -420 Descending FlightAware
08:45AM 40.6390 -2.7150 North 285 328 13,300 -360 Descending FlightAware
08:46AM 40.6900 -2.6710 33° Northeast 285 328 13,000 -480 Descending FlightAware
08:47AM 40.7340 -2.6370 30° Northeast 278 320 12,700 -360 Descending FlightAware
08:47AM 40.7440 -2.6350 North 271 312 12,700 -420 Level FlightAware
08:47AM 40.7700 -2.6460 342° North 257 296 12,500 -420 Descending FlightAware
08:48AM 40.8130 -2.6730 335° Northwest 254 292 12,300 -360 Descending FlightAware
08:49AM 40.8590 -2.7040 333° Northwest 256 295 12,000 -480 Descending FlightAware
08:49AM 40.8830 -2.7280 323° Northwest 249 287 11,800 -480 Descending FlightAware
08:49AM 40.8880 -2.7480 288° West 244 281 11,700 -420 Descending FlightAware
08:50AM 40.8980 -2.8150 281° West 241 277 11,400 -480 Descending FlightAware
08:51AM 40.9070 -2.8730 282° West 242 278 11,100 -480 Descending FlightAware
08:52AM 40.9150 -2.9310 280° West 241 277 10,800 -360 Descending FlightAware
08:52AM 40.9240 -2.9940 281° West 240 276 10,600 -360 Descending FlightAware
08:53AM 40.9320 -3.0520 280° West 235 270 10,300 -420 Descending FlightAware
08:54AM 40.9380 -3.1010 279° West 237 273 10,100 -480 Descending FlightAware
08:54AM 40.9420 -3.1310 280° West 237 273 9,900 -180 Descending FlightAware
08:54AM 40.9470 -3.1620 282° West 234 269 10,000  Climbing FlightAware
08:55AM 40.9530 -3.2070 280° West 235 270 9,900 -120 Descending FlightAware
08:55AM 40.9590 -3.2510 280° West 239 275 9,900  Level FlightAware
08:56AM 40.9640 -3.2960 278° West 242 278 9,900  Level FlightAware
08:56AM 40.9680 -3.3290 279° West 242 278 9,900  Level FlightAware
08:57AM 40.9750 -3.3730 282° West 238 274 9,900  Level FlightAware
08:57AM 40.9790 -3.4110 278° West 239 275 9,900  Level FlightAware
08:58AM 40.9700 -3.4460 251° West 242 278 9,900 -120 Level FlightAware
08:58AM 40.9430 -3.4820 225° Southwest 234 269 9,800 -1,020 Descending FlightAware
08:59AM 40.9240 -3.5090 227° Southwest 244 281 8,900 -1,680 Descending FlightAware
08:59AM 40.9050 -3.5340 225° Southwest 245 282 8,400 -600 Descending FlightAware
08:59AM 40.8770 -3.5580 213° Southwest 236 272 8,400  Level FlightAware
09:00AM 40.8610 -3.5600 185° South 218 251 8,400 -180 Level FlightAware
09:00AM 40.8310 -3.5610 181° South 211 243 8,300 -840 Descending FlightAware
09:01AM 40.8130 -3.5610 180° South 212 244 7,700 -1,980 Descending FlightAware
09:01AM 40.7910 -3.5610 180° South 214 246 7,000 -1,740 Descending FlightAware
09:01AM 40.7680 -3.5610 180° South 221 254 6,400 -1,320 Descending FlightAware
09:02AM 40.7390 -3.5610 180° South 206 237 5,800 -1,140 Descending FlightAware
09:02AM 40.7100 -3.5600 179° South 198 228 5,300 -1,020 Descending FlightAware
09:03AM 40.6880 -3.5600 180° South 190 219 4,900 -1,020 Descending FlightAware
09:03AM 40.6630 -3.5600 180° South 180 207 4,400 -900 Descending FlightAware
09:04AM 40.6390 -3.5600 180° South 173 199 4,000 -1,020 Descending FlightAware
09:04AM 40.6170 -3.5600 180° South 173 199 3,500 -1,020 Descending FlightAware
09:05AM 40.5950 -3.5600 180° South 141 162 3,100 -720 Descending FlightAware
09:05AM 40.5870 -3.5600 180° South 133 153 3,000 -600 Descending FlightAware
09:05AM 40.5710 -3.5600 180° South 138 159 2,700 -780 Descending FlightAware
09:06AM 40.5610 -3.5600 180° South 142 163 2,500 -300 Descending FlightAware
09:06AM 40.5430 -3.5600 180° South 142 163 2,500 -420 Level FlightAware
09:07AM 40.5260 -3.5590 177° South 131 151 2,100 -840 Descending FlightAware
09:09AM 40.4936 -3.5668 190° South  Level Estimated
09:10AM 40.4936 -3.5668 217° Southwest  Level Estimated
09:11AM 40.4936 -3.5668 217° Southwest  Level Estimated